createdAt,value
2023-07-09T00:00:37.009Z,98872.34
2023-07-09T00:05:43.030Z,98860.28
2023-07-09T00:10:46.831Z,98869.84
2023-07-09T00:15:52.690Z,98863.94
2023-07-09T00:20:56.394Z,98867.00
2023-07-09T00:26:00.498Z,98872.44
2023-07-09T00:31:07.425Z,98870.00
2023-07-09T00:36:18.043Z,98861.25
2023-07-09T00:41:23.672Z,98862.06
2023-07-09T00:47:04.346Z,98853.44
2023-07-09T00:52:25.217Z,98855.22
2023-07-09T00:57:30.037Z,98845.75
2023-07-09T01:02:35.346Z,98842.28
2023-07-09T01:07:47.368Z,98844.94
2023-07-09T01:12:52.645Z,98828.63
2023-07-09T01:18:03.281Z,98820.69
2023-07-09T01:23:08.926Z,98825.00
2023-07-09T01:28:12.562Z,98824.09
2023-07-09T01:33:18.910Z,98813.13
2023-07-09T01:38:24.007Z,98825.97
2023-07-09T01:43:28.155Z,98798.13
2023-07-09T01:48:42.758Z,98815.91
2023-07-09T01:53:47.850Z,98818.50
2023-07-09T01:58:51.635Z,98810.31
2023-07-09T02:03:55.161Z,98813.34
2023-07-09T02:09:01.160Z,98809.19
2023-07-09T02:14:04.983Z,98807.00
2023-07-09T02:19:08.772Z,98808.84
2023-07-09T02:24:13.824Z,98804.06
2023-07-09T02:29:17.678Z,98808.16
2023-07-09T02:34:21.554Z,98812.41
2023-07-09T02:39:27.448Z,98811.13
2023-07-09T02:44:31.028Z,98802.09
2023-07-09T02:49:34.640Z,98800.69
2023-07-09T02:54:39.720Z,98794.59
2023-07-09T02:59:45.885Z,98804.69
2023-07-09T03:04:51.108Z,98805.03
2023-07-09T03:09:56.111Z,98812.59
2023-07-09T03:14:59.678Z,98803.44
2023-07-09T03:20:03.422Z,98780.19
2023-07-09T03:25:09.711Z,98798.22
2023-07-09T03:30:14.244Z,98801.66
2023-07-09T03:35:18.032Z,98802.91
2023-07-09T03:40:25.496Z,98796.56
2023-07-09T03:45:32.540Z,98785.91
2023-07-09T03:50:36.180Z,98788.84
2023-07-09T03:55:41.131Z,98788.03
2023-07-09T04:00:46.776Z,98790.56
2023-07-09T04:05:51.752Z,98789.59
2023-07-09T04:10:57.786Z,98791.91
2023-07-09T04:16:01.650Z,98788.22
2023-07-09T04:21:05.781Z,98793.50
2023-07-09T04:26:14.767Z,98795.41
2023-07-09T04:31:18.327Z,98788.88
2023-07-09T04:36:22.455Z,98787.59
2023-07-09T04:41:27.629Z,98784.56
2023-07-09T04:46:31.737Z,98786.16
2023-07-09T04:51:35.753Z,98772.53
2023-07-09T04:56:40.774Z,98770.66
2023-07-09T05:01:45.789Z,98770.66
2023-07-09T05:06:49.721Z,98779.84
2023-07-09T05:11:55.281Z,98774.72
2023-07-09T05:16:58.806Z,98775.72
2023-07-09T05:22:02.954Z,98770.91
2023-07-09T05:27:09.494Z,98766.56
2023-07-09T05:32:13.133Z,98770.69
2023-07-09T05:37:16.696Z,98763.16
2023-07-09T05:42:21.749Z,98767.72
2023-07-09T05:47:27.451Z,98767.56
2023-07-09T05:52:32.904Z,98761.09
2023-07-09T05:57:37.960Z,98766.47
2023-07-09T06:02:41.713Z,98757.63
2023-07-09T06:07:45.454Z,98752.78
2023-07-09T06:12:51.204Z,98751.84
2023-07-09T06:17:57.454Z,98750.81
2023-07-09T06:23:01.766Z,98742.19
2023-07-09T06:28:06.848Z,98743.03
2023-07-09T06:33:10.764Z,98745.28
2023-07-09T06:38:14.337Z,98737.03
2023-07-09T06:43:19.476Z,98732.13
2023-07-09T06:48:25.382Z,98721.09
2023-07-09T06:53:30.760Z,98715.84
2023-07-09T06:58:36.097Z,98716.63
2023-07-09T07:03:39.933Z,98721.91
2023-07-09T07:08:43.696Z,98712.19
2023-07-09T07:13:52.966Z,98708.75
2023-07-09T07:18:57.922Z,98697.88
2023-07-09T07:24:04.511Z,98689.53
2023-07-09T07:29:10.082Z,98685.56
2023-07-09T07:34:13.756Z,98686.81
2023-07-09T07:39:17.753Z,98668.41
2023-07-09T07:44:22.680Z,98668.72
2023-07-09T07:49:26.363Z,98670.38
2023-07-09T07:54:29.954Z,98668.91
2023-07-09T07:59:37.950Z,98657.22
2023-07-09T08:04:42.373Z,98651.72
2023-07-09T08:09:45.974Z,98644.72
2023-07-09T08:14:51.143Z,98641.84
2023-07-09T08:19:56.476Z,98622.75
2023-07-09T08:25:06.082Z,98630.59
2023-07-09T08:30:13.552Z,98630.50
2023-07-09T08:40:24.766Z,98625.97
2023-07-09T08:45:43.153Z,98627.78
2023-07-09T08:50:53.645Z,98616.63
2023-07-09T08:55:58.361Z,98619.19
2023-07-09T09:01:08.130Z,98603.13
2023-07-09T09:06:15.343Z,98612.94
2023-07-09T09:11:29.693Z,98597.03
2023-07-09T09:16:41.279Z,98591.63
2023-07-09T09:21:46.362Z,98588.22
2023-07-09T09:26:53.969Z,98595.03
2023-07-09T09:32:03.478Z,98591.16
2023-07-09T09:37:13.186Z,98591.59
2023-07-09T09:42:17.157Z,98582.66
2023-07-09T09:47:29.356Z,98576.84
2023-07-09T09:52:35.305Z,98573.53
2023-07-09T09:57:39.940Z,98563.25
2023-07-09T10:02:46.791Z,98572.06
2023-07-09T10:08:00.482Z,98583.72
2023-07-09T10:13:13.101Z,98563.03
2023-07-09T10:18:31.449Z,98567.53
2023-07-09T10:23:41.440Z,98562.25
2023-07-09T10:29:06.233Z,98560.16
2023-07-09T10:34:21.495Z,98547.75
2023-07-09T10:39:30.781Z,98548.31
2023-07-09T10:44:38.639Z,98556.72
2023-07-09T10:49:53.408Z,98548.88
2023-07-09T10:55:04.831Z,98552.97
2023-07-09T11:00:14.545Z,98546.09
2023-07-09T11:05:20.161Z,98538.88
2023-07-09T11:10:33.148Z,98534.84
2023-07-09T11:15:40.140Z,98524.94
2023-07-09T11:20:48.965Z,98524.38
2023-07-09T11:26:03.965Z,98542.84
2023-07-09T11:31:09.309Z,98527.69
2023-07-09T11:36:17.866Z,98534.50
2023-07-09T11:41:52.578Z,98518.09
2023-07-09T11:47:17.854Z,98518.63
2023-07-09T11:52:30.432Z,98518.28
2023-07-09T11:57:34.813Z,98519.91
2023-07-09T12:02:38.788Z,98526.41
2023-07-09T12:07:43.894Z,98515.19
2023-07-09T12:12:49.664Z,98518.22
2023-07-09T12:17:59.089Z,98513.25
2023-07-09T12:23:13.299Z,98505.94
2023-07-09T12:28:17.675Z,98493.97
2023-07-09T12:33:22.905Z,98506.63
2023-07-09T12:38:31.224Z,98508.31
2023-07-09T12:43:35.033Z,98505.50
2023-07-09T12:48:38.745Z,98514.13
2023-07-09T12:53:43.743Z,98511.56
2023-07-09T12:58:47.308Z,98505.38
2023-07-09T13:03:59.058Z,98496.50
2023-07-09T13:09:08.212Z,98504.25
2023-07-09T13:14:21.030Z,98497.34
2023-07-09T13:19:24.657Z,98487.34
2023-07-09T13:24:32.100Z,98472.72
2023-07-09T13:29:36.568Z,98480.19
2023-07-09T13:34:41.286Z,98479.91
2023-07-09T13:39:46.884Z,98474.97
2023-07-09T13:44:51.183Z,98474.00
2023-07-09T13:49:55.061Z,98479.91
2023-07-09T13:55:00.045Z,98478.34
2023-07-09T14:00:05.365Z,98477.38
2023-07-09T14:05:13.226Z,98469.09
2023-07-09T14:10:20.059Z,98478.91
2023-07-09T14:15:24.607Z,98465.81
2023-07-09T14:20:28.315Z,98462.31
2023-07-09T14:25:33.585Z,98465.28
2023-07-09T14:30:37.561Z,98463.28
2023-07-09T14:35:45.109Z,98455.38
2023-07-09T14:40:52.085Z,98453.81
2023-07-09T14:45:55.728Z,98442.84
2023-07-09T14:50:59.420Z,98435.25
2023-07-09T14:56:04.444Z,98441.63
2023-07-09T15:01:21.915Z,98451.88
2023-07-09T15:06:25.604Z,98449.13
2023-07-09T15:11:30.987Z,98455.34
2023-07-09T15:16:34.692Z,98453.31
2023-07-09T15:21:38.393Z,98455.44
2023-07-09T15:26:43.527Z,98454.22
2023-07-09T15:31:47.726Z,98457.50
2023-07-09T15:36:53.343Z,98449.19
2023-07-09T15:42:02.784Z,98450.50
2023-07-09T15:47:07.967Z,98434.06
2023-07-09T15:52:12.810Z,98446.88
2023-07-09T15:57:36.631Z,98448.72
2023-07-09T16:02:45.314Z,98451.13
2023-07-09T16:07:49.407Z,98465.00
2023-07-09T16:12:54.977Z,98455.09
2023-07-09T16:17:58.799Z,98454.38
2023-07-09T16:23:02.166Z,98453.97
2023-07-09T16:28:08.390Z,98454.19
2023-07-09T16:33:18.161Z,98444.75
2023-07-09T16:38:22.199Z,98461.34
2023-07-09T16:43:27.189Z,98469.50
2023-07-09T16:48:31.022Z,98457.66
2023-07-09T16:53:35.497Z,98463.09
2023-07-09T16:58:40.995Z,98434.09
2023-07-09T17:03:44.666Z,98465.06
2023-07-09T17:08:59.985Z,98465.94
2023-07-09T17:14:05.046Z,98458.00
2023-07-09T17:19:12.791Z,98472.97
2023-07-09T17:24:27.550Z,98468.94
2023-07-09T17:29:34.216Z,98470.13
2023-07-09T17:34:39.852Z,98471.47
2023-07-09T17:39:44.813Z,98474.41
2023-07-09T17:44:49.983Z,98464.09
2023-07-09T17:49:53.571Z,98472.84
2023-07-09T17:54:58.155Z,98481.03
2023-07-09T18:00:08.338Z,98469.53
2023-07-09T18:05:31.055Z,98477.88
2023-07-09T18:10:37.524Z,98473.47
2023-07-09T18:15:44.445Z,98475.66
2023-07-09T18:20:48.231Z,98479.75
2023-07-09T18:25:52.527Z,98488.50
2023-07-09T18:31:11.688Z,98488.81
2023-07-09T18:36:26.077Z,98483.34
2023-07-09T18:41:32.761Z,98498.63
2023-07-09T18:46:38.255Z,98498.72
2023-07-09T18:51:43.317Z,98491.91
2023-07-09T18:56:49.752Z,98493.81
2023-07-09T19:01:55.280Z,98493.16
2023-07-09T19:06:59.276Z,98488.31
2023-07-09T19:12:02.910Z,98484.63
2023-07-09T19:17:11.973Z,98491.31
2023-07-09T19:22:16.529Z,98471.13
2023-07-09T19:27:20.108Z,98472.44
2023-07-09T19:32:28.930Z,98478.00
2023-07-09T19:37:32.840Z,98475.03
2023-07-09T19:42:40.655Z,98477.28
2023-07-09T19:47:48.295Z,98470.00
2023-07-09T19:52:53.694Z,98462.94
2023-07-09T19:57:57.295Z,98472.16
2023-07-09T20:03:04.589Z,98472.78
2023-07-09T20:08:15.654Z,98465.66
2023-07-09T20:13:24.923Z,98462.69
2023-07-09T20:18:30.128Z,98463.91
2023-07-09T20:23:39.423Z,98465.53
2023-07-09T20:28:43.422Z,98454.84
2023-07-09T20:33:48.901Z,98463.16
2023-07-09T20:38:52.491Z,98462.91
2023-07-09T20:43:57.859Z,98457.34
2023-07-09T20:49:02.841Z,98468.53
2023-07-09T20:54:06.526Z,98469.97
2023-07-09T20:59:33.935Z,98468.59
2023-07-09T21:04:39.330Z,98460.28
2023-07-09T21:09:43.186Z,98468.72
2023-07-09T21:14:48.290Z,98453.34
2023-07-09T21:19:54.158Z,98446.91
2023-07-09T21:24:59.419Z,98453.97
2023-07-09T21:30:03.078Z,98453.34
2023-07-09T21:35:18.008Z,98458.22
2023-07-09T21:40:28.885Z,98456.09
2023-07-09T21:45:36.672Z,98451.25
2023-07-09T21:50:42.117Z,98451.69
2023-07-09T21:55:45.680Z,98450.44
2023-07-09T22:00:55.918Z,98444.72
2023-07-09T22:06:04.355Z,98405.00
2023-07-09T22:11:22.857Z,98448.19
2023-07-09T22:16:28.448Z,98446.06
2023-07-09T22:21:34.514Z,98450.13
2023-07-09T22:26:38.713Z,98445.16
2023-07-09T22:31:43.974Z,98447.56
2023-07-09T22:36:50.028Z,98454.72
2023-07-09T22:41:54.013Z,98446.56
2023-07-09T22:46:59.242Z,98451.97
2023-07-09T22:52:04.418Z,98445.28
2023-07-09T22:57:08.208Z,98439.22
2023-07-09T23:02:13.974Z,98437.75
2023-07-09T23:07:19.430Z,98437.94
2023-07-09T23:12:23.297Z,98406.53
2023-07-09T23:17:26.985Z,98426.31
2023-07-09T23:22:32.555Z,98427.31
2023-07-09T23:27:39.127Z,98427.66
2023-07-09T23:32:42.862Z,98429.75
2023-07-09T23:37:50.642Z,98435.19
2023-07-09T23:42:55.356Z,98428.50
2023-07-09T23:48:04.918Z,98426.91
2023-07-09T23:53:24.491Z,98425.47
2023-07-09T23:58:31.411Z,98430.72
